createdAt,value
2019-02-21T00:00:03.868Z,16.17
2019-02-21T00:02:34.187Z,18.43
2019-02-21T00:05:05.008Z,18.73
2019-02-21T00:07:35.443Z,18.60
2019-02-21T00:10:06.273Z,18.10
2019-02-21T00:12:36.615Z,19.90
2019-02-21T00:15:07.147Z,19.60
2019-02-21T00:17:38.747Z,16.53
2019-02-21T00:20:09.038Z,16.90
2019-02-21T00:22:39.856Z,17.30
2019-02-21T00:25:10.058Z,19.33
2019-02-21T00:27:40.677Z,20.03
2019-02-21T00:30:10.972Z,19.27
2019-02-21T00:32:41.287Z,20.43
2019-02-21T00:35:11.655Z,18.13
2019-02-21T00:37:42.033Z,16.03
2019-02-21T00:40:12.305Z,16.43
2019-02-21T00:42:42.645Z,17.53
2019-02-21T00:45:12.958Z,19.77
2019-02-21T00:47:43.275Z,18.50
2019-02-21T00:50:13.548Z,19.50
2019-02-21T00:52:43.913Z,17.73
2019-02-21T00:55:14.278Z,18.70
2019-02-21T00:57:44.596Z,18.33
2019-02-21T01:00:15.013Z,22.87
2019-02-21T01:02:45.349Z,21.00
2019-02-21T01:05:16.044Z,22.70
2019-02-21T01:07:46.317Z,21.57
2019-02-21T01:10:16.612Z,21.83
2019-02-21T01:12:46.972Z,20.30
2019-02-21T01:15:17.258Z,21.57
2019-02-21T01:17:47.632Z,22.33
2019-02-21T01:20:17.933Z,19.90
2019-02-21T01:22:48.280Z,22.37
2019-02-21T01:25:18.516Z,20.43
2019-02-21T01:27:49.213Z,21.80
2019-02-21T01:30:19.493Z,21.03
2019-02-21T01:32:49.881Z,22.60
2019-02-21T01:35:20.141Z,23.50
2019-02-21T01:37:50.417Z,19.40
2019-02-21T01:40:20.717Z,21.53
2019-02-21T01:42:51.000Z,18.27
2019-02-21T01:45:21.321Z,21.00
2019-02-21T01:47:51.597Z,17.20
2019-02-21T01:50:21.885Z,18.40
2019-02-21T01:52:52.341Z,20.57
2019-02-21T01:55:22.697Z,19.87
2019-02-21T01:57:52.977Z,19.23
2019-02-21T02:00:23.265Z,18.17
2019-02-21T02:02:53.546Z,17.27
2019-02-21T02:05:23.893Z,20.03
2019-02-21T02:07:54.281Z,24.07
2019-02-21T02:10:24.689Z,20.83
2019-02-21T02:12:55.040Z,21.27
2019-02-21T02:15:25.412Z,19.03
2019-02-21T02:17:55.769Z,25.03
2019-02-21T02:20:26.156Z,20.83
2019-02-21T02:22:56.489Z,21.47
2019-02-21T02:25:26.801Z,24.10
2019-02-21T02:27:57.114Z,23.43
2019-02-21T02:30:27.430Z,21.47
2019-02-21T02:32:57.766Z,21.63
2019-02-21T02:35:28.073Z,23.63
2019-02-21T02:37:58.394Z,22.23
2019-02-21T02:40:28.774Z,25.13
2019-02-21T02:42:59.171Z,26.00
2019-02-21T02:45:29.516Z,25.20
2019-02-21T02:47:59.800Z,21.87
2019-02-21T02:50:30.200Z,22.00
2019-02-21T02:53:00.573Z,23.80
2019-02-21T02:55:30.796Z,24.40
2019-02-21T02:58:01.086Z,20.17
2019-02-21T03:00:31.447Z,22.53
2019-02-21T03:03:01.881Z,24.73
2019-02-21T03:05:32.172Z,21.53
2019-02-21T03:08:02.502Z,22.60
2019-02-21T03:10:32.790Z,24.83
2019-02-21T03:13:03.112Z,21.50
2019-02-21T03:15:33.436Z,20.93
2019-02-21T03:18:03.733Z,21.63
2019-02-21T03:20:34.105Z,20.53
2019-02-21T03:23:06.459Z,23.20
2019-02-21T03:25:36.479Z,25.10
2019-02-21T03:28:06.335Z,21.27
2019-02-21T03:30:36.671Z,20.97
2019-02-21T03:33:07.372Z,24.37
2019-02-21T03:35:37.713Z,22.80
2019-02-21T03:38:08.054Z,23.17
2019-02-21T03:40:38.661Z,22.43
2019-02-21T03:43:08.973Z,20.90
2019-02-21T03:45:39.341Z,24.40
2019-02-21T03:48:09.715Z,23.50
2019-02-21T03:50:40.596Z,26.67
2019-02-21T03:53:10.983Z,21.93
2019-02-21T03:55:41.305Z,24.13
2019-02-21T03:58:11.784Z,22.90
2019-02-21T04:00:42.142Z,24.53
2019-02-21T04:03:12.443Z,24.13
2019-02-21T04:05:43.180Z,23.27
2019-02-21T04:08:13.505Z,24.73
2019-02-21T04:10:43.878Z,27.77
2019-02-21T04:13:15.315Z,23.10
2019-02-21T04:15:45.789Z,23.17
2019-02-21T04:18:16.072Z,24.93
2019-02-21T04:20:46.376Z,24.33
2019-02-21T04:23:16.712Z,23.53
2019-02-21T04:25:47.031Z,25.57
2019-02-21T04:28:17.349Z,26.33
2019-02-21T04:30:47.636Z,25.33
2019-02-21T04:33:17.907Z,22.77
2019-02-21T04:35:48.185Z,24.20
2019-02-21T04:38:18.671Z,22.80
2019-02-21T04:40:49.095Z,25.40
2019-02-21T04:43:19.411Z,25.60
2019-02-21T04:45:49.752Z,26.63
2019-02-21T04:48:20.109Z,26.17
2019-02-21T04:50:50.380Z,25.77
2019-02-21T04:53:20.697Z,24.67
2019-02-21T04:55:52.445Z,24.23
2019-02-21T04:58:22.736Z,28.13
2019-02-21T05:00:54.221Z,24.83
2019-02-21T05:03:24.497Z,26.43
2019-02-21T05:05:54.822Z,24.40
2019-02-21T05:08:25.211Z,24.97
2019-02-21T05:10:55.502Z,25.63
2019-02-21T05:13:25.801Z,25.53
2019-02-21T05:15:56.206Z,26.93
2019-02-21T05:18:26.497Z,24.53
2019-02-21T05:20:56.767Z,25.63
2019-02-21T05:23:27.102Z,28.50
2019-02-21T05:29:04.569Z,28.27
2019-02-21T05:31:42.465Z,27.03
2019-02-21T05:34:27.061Z,25.13
2019-02-21T05:37:19.550Z,26.40
2019-02-21T05:40:07.804Z,25.30
2019-02-21T05:42:57.158Z,29.57
2019-02-21T05:45:35.055Z,24.47
2019-02-21T05:48:15.691Z,26.10
2019-02-21T05:50:51.236Z,22.20
2019-02-21T05:53:42.255Z,26.43
2019-02-21T06:00:24.681Z,25.67
2019-02-21T06:03:27.361Z,27.50
2019-02-21T06:06:19.736Z,29.50
2019-02-21T06:09:09.404Z,27.77
2019-02-21T06:12:02.165Z,32.03
2019-02-21T06:15:00.857Z,26.63
2019-02-21T06:17:50.176Z,26.97
2019-02-21T06:20:42.519Z,27.00
2019-02-21T06:23:22.093Z,25.00
2019-02-21T06:26:02.386Z,25.40
2019-02-21T06:29:09.559Z,24.07
2019-02-21T06:31:39.088Z,29.90
2019-02-21T06:34:09.383Z,26.37
2019-02-21T06:36:39.706Z,26.97
2019-02-21T06:39:09.994Z,24.07
2019-02-21T06:41:42.811Z,25.67
2019-02-21T06:44:13.050Z,25.60
2019-02-21T06:46:43.333Z,22.37
2019-02-21T06:49:13.660Z,26.73
2019-02-21T06:51:44.029Z,27.30
2019-02-21T06:54:14.339Z,26.90
2019-02-21T06:56:44.619Z,23.50
2019-02-21T06:59:14.936Z,26.53
2019-02-21T07:01:45.249Z,25.97
2019-02-21T07:04:15.828Z,26.47
2019-02-21T07:06:46.192Z,22.67
2019-02-21T07:09:16.549Z,24.33
2019-02-21T07:11:46.837Z,26.63
2019-02-21T07:14:17.219Z,24.10
2019-02-21T07:16:47.502Z,27.73
2019-02-21T07:19:17.874Z,26.83
2019-02-21T07:21:48.244Z,25.33
2019-02-21T07:24:19.549Z,24.33
2019-02-21T07:26:49.884Z,24.03
2019-02-21T07:29:20.203Z,26.43
2019-02-21T07:31:50.485Z,27.97
2019-02-21T07:34:20.805Z,26.17
2019-02-21T07:36:51.141Z,26.97
2019-02-21T07:39:21.484Z,27.30
2019-02-21T07:41:51.766Z,27.87
2019-02-21T07:44:22.444Z,25.07
2019-02-21T07:46:53.506Z,25.53
2019-02-21T07:49:25.686Z,26.70
2019-02-21T07:51:55.753Z,27.37
2019-02-21T07:54:26.041Z,24.60
2019-02-21T07:56:56.309Z,25.03
2019-02-21T07:59:26.634Z,25.87
2019-02-21T08:01:56.923Z,25.50
2019-02-21T08:04:27.280Z,26.17
2019-02-21T08:06:57.621Z,28.07
2019-02-21T08:09:28.125Z,25.63
2019-02-21T08:11:58.353Z,28.23
2019-02-21T08:14:28.646Z,27.50
2019-02-21T08:16:58.929Z,24.67
2019-02-21T08:19:29.221Z,27.83
2019-02-21T08:22:00.268Z,27.37
2019-02-21T08:24:30.688Z,26.57
2019-02-21T08:27:01.034Z,25.77
2019-02-21T08:29:31.365Z,27.23
2019-02-21T08:32:01.633Z,27.57
2019-02-21T08:34:41.652Z,26.27
2019-02-21T08:37:11.932Z,22.83
2019-02-21T08:39:43.169Z,27.30
2019-02-21T08:42:13.699Z,25.43
2019-02-21T08:44:45.261Z,27.87
2019-02-21T08:47:15.553Z,29.97
2019-02-21T08:50:52.845Z,26.07
2019-02-21T08:53:23.220Z,27.90
2019-02-21T08:55:55.924Z,31.17
2019-02-21T08:58:25.428Z,29.30
2019-02-21T09:00:55.717Z,25.67
2019-02-21T09:03:25.999Z,28.03
2019-02-21T09:05:56.271Z,28.77
2019-02-21T09:08:33.591Z,24.23
2019-02-21T09:10:58.514Z,29.00
2019-02-21T09:13:28.820Z,28.63
2019-02-21T09:15:59.749Z,26.97
2019-02-21T09:18:30.039Z,23.87
2019-02-21T09:21:00.342Z,25.30
2019-02-21T09:23:30.678Z,28.40
2019-02-21T09:26:02.173Z,26.57
2019-02-21T09:28:32.565Z,27.87
2019-02-21T09:31:02.960Z,22.87
2019-02-21T09:33:33.526Z,26.40
2019-02-21T09:36:04.349Z,24.47
2019-02-21T09:38:34.932Z,23.87
2019-02-21T09:41:05.581Z,28.50
2019-02-21T09:43:35.884Z,22.90
2019-02-21T09:46:06.215Z,22.47
2019-02-21T09:48:36.488Z,23.93
2019-02-21T09:51:07.340Z,22.40
2019-02-21T09:53:37.654Z,25.70
2019-02-21T09:56:07.953Z,24.17
2019-02-21T09:58:38.343Z,25.37
2019-02-21T10:01:08.760Z,23.73
2019-02-21T10:03:39.120Z,23.37
2019-02-21T10:06:09.477Z,23.77
2019-02-21T10:08:39.805Z,25.07
2019-02-21T10:11:11.504Z,23.33
2019-02-21T10:13:41.879Z,25.67
2019-02-21T10:16:12.652Z,22.90
2019-02-21T10:18:43.408Z,22.67
2019-02-21T10:21:13.640Z,23.23
2019-02-21T10:23:44.100Z,20.10
2019-02-21T10:26:14.383Z,24.43
2019-02-21T10:28:45.259Z,24.00
2019-02-21T10:31:17.444Z,22.23
2019-02-21T10:33:47.704Z,20.63
2019-02-21T10:36:18.085Z,20.37
2019-02-21T10:38:48.380Z,24.63
2019-02-21T10:41:18.644Z,20.53
2019-02-21T10:43:49.070Z,22.83
2019-02-21T10:46:19.348Z,23.50
2019-02-21T10:48:49.684Z,23.97
2019-02-21T10:51:19.993Z,20.47
2019-02-21T10:53:50.288Z,21.37
2019-02-21T10:56:20.547Z,21.80
2019-02-21T10:58:50.831Z,22.03
2019-02-21T11:01:21.293Z,22.23
2019-02-21T11:03:51.562Z,21.63
2019-02-21T11:06:21.864Z,21.37
2019-02-21T11:08:52.109Z,20.20
2019-02-21T11:11:22.388Z,21.30
2019-02-21T11:13:52.777Z,19.97
2019-02-21T11:16:23.143Z,21.63
2019-02-21T11:18:53.496Z,18.17
2019-02-21T11:21:23.777Z,20.53
2019-02-21T11:23:54.071Z,19.83
2019-02-21T11:26:24.349Z,19.60
2019-02-21T11:28:54.652Z,22.87
2019-02-21T11:31:27.655Z,21.63
2019-02-21T11:33:56.816Z,21.07
2019-02-21T11:36:27.120Z,20.97
2019-02-21T11:38:57.413Z,22.37
2019-02-21T11:41:27.688Z,23.73
2019-02-21T11:43:57.968Z,23.10
2019-02-21T11:46:28.261Z,20.97
2019-02-21T11:48:58.554Z,20.70
2019-02-21T11:51:28.912Z,24.60
2019-02-21T11:53:59.385Z,21.33
2019-02-21T11:56:29.690Z,23.43
2019-02-21T11:58:59.985Z,24.17
2019-02-21T12:01:30.252Z,24.23
2019-02-21T12:04:00.560Z,27.07
2019-02-21T12:06:30.823Z,23.57
2019-02-21T12:09:01.256Z,23.13
2019-02-21T12:11:31.531Z,24.63
2019-02-21T12:14:01.838Z,26.13
2019-02-21T12:16:32.116Z,27.23
2019-02-21T12:19:02.417Z,25.30
2019-02-21T12:21:32.808Z,28.10
2019-02-21T12:24:03.144Z,26.10
2019-02-21T12:26:33.496Z,26.37
2019-02-21T12:29:03.846Z,30.13
2019-02-21T12:31:34.191Z,27.63
2019-02-21T12:34:04.516Z,31.20
2019-02-21T12:36:34.792Z,26.50
2019-02-21T12:39:06.177Z,26.57
2019-02-21T12:41:36.477Z,29.83
2019-02-21T12:44:06.769Z,27.93
2019-02-21T12:46:38.042Z,29.13
2019-02-21T12:49:10.639Z,28.33
2019-02-21T12:51:40.534Z,29.80
2019-02-21T12:54:10.856Z,29.27
2019-02-21T12:56:41.186Z,31.23
2019-02-21T12:59:11.559Z,28.43
2019-02-21T13:01:41.806Z,26.07
2019-02-21T13:04:12.208Z,26.30
2019-02-21T13:06:42.499Z,24.30
2019-02-21T13:09:12.787Z,27.43
2019-02-21T13:11:43.190Z,26.70
2019-02-21T13:14:13.565Z,31.00
2019-02-21T13:16:43.886Z,26.90
2019-02-21T13:19:14.169Z,27.67
2019-02-21T13:21:44.504Z,27.07
2019-02-21T13:24:14.823Z,24.47
2019-02-21T13:26:45.108Z,23.83
2019-02-21T13:29:15.473Z,21.37
2019-02-21T13:31:45.758Z,22.30
2019-02-21T13:34:16.109Z,22.27
2019-02-21T13:36:46.415Z,21.77
2019-02-21T13:39:16.727Z,21.77
2019-02-21T13:41:47.006Z,22.87
2019-02-21T13:44:17.292Z,22.83
2019-02-21T13:46:47.577Z,21.53
2019-02-21T13:49:18.185Z,21.90
2019-02-21T13:51:48.476Z,24.33
2019-02-21T13:54:18.759Z,20.60
2019-02-21T13:56:49.285Z,22.50
2019-02-21T13:59:19.555Z,23.20
2019-02-21T14:01:49.907Z,21.50
2019-02-21T14:04:20.836Z,21.80
2019-02-21T14:06:51.073Z,26.27
2019-02-21T14:09:24.187Z,24.47
2019-02-21T14:11:53.262Z,23.20
2019-02-21T14:14:23.532Z,24.20
2019-02-21T14:16:53.887Z,23.27
2019-02-21T14:19:24.156Z,25.87
2019-02-21T14:21:54.509Z,27.43
2019-02-21T14:24:36.028Z,27.43
2019-02-21T14:26:56.788Z,27.33
2019-02-21T14:29:38.439Z,27.80
2019-02-21T14:31:58.968Z,28.37
2019-02-21T14:34:29.336Z,28.47
2019-02-21T14:37:01.323Z,27.40
2019-02-21T14:39:31.644Z,26.03
2019-02-21T14:42:04.340Z,28.60
2019-02-21T14:44:34.398Z,28.23
2019-02-21T14:47:07.910Z,25.97
2019-02-21T14:49:37.654Z,27.60
2019-02-21T14:52:07.960Z,27.10
2019-02-21T14:54:38.617Z,27.63
2019-02-21T14:57:08.908Z,27.00
2019-02-21T14:59:39.264Z,29.03
2019-02-21T15:02:09.552Z,26.43
2019-02-21T15:04:39.882Z,25.30
2019-02-21T15:07:10.177Z,25.77
2019-02-21T15:09:40.893Z,26.97
2019-02-21T15:12:11.864Z,22.90
2019-02-21T15:14:42.229Z,24.43
2019-02-21T15:17:12.513Z,22.37
2019-02-21T15:19:42.873Z,23.30
2019-02-21T15:22:13.952Z,24.47
2019-02-21T15:24:44.347Z,27.97
2019-02-21T15:27:14.643Z,26.23
2019-02-21T15:29:44.991Z,24.67
2019-02-21T15:32:15.379Z,27.77
2019-02-21T15:34:47.267Z,27.13
2019-02-21T15:37:17.677Z,27.53
2019-02-21T15:39:47.952Z,27.23
2019-02-21T15:42:18.220Z,27.33
2019-02-21T15:44:48.492Z,28.80
2019-02-21T15:47:19.097Z,28.27
2019-02-21T15:49:49.344Z,30.13
2019-02-21T15:52:22.622Z,30.17
2019-02-21T15:54:51.600Z,28.80
2019-02-21T15:57:21.877Z,27.63
2019-02-21T15:59:52.156Z,28.77
2019-02-21T16:02:22.631Z,30.57
2019-02-21T16:04:52.908Z,29.80
2019-02-21T16:07:23.200Z,31.30
2019-02-21T16:09:53.560Z,30.97
2019-02-21T16:12:24.172Z,27.43
2019-02-21T16:14:54.698Z,29.77
2019-02-21T16:17:25.008Z,32.17
2019-02-21T16:19:55.280Z,29.30
2019-02-21T16:22:25.923Z,30.97
2019-02-21T16:24:56.153Z,31.57
2019-02-21T16:27:26.571Z,30.37
2019-02-21T16:29:56.832Z,31.50
2019-02-21T16:32:27.145Z,28.90
2019-02-21T16:34:57.426Z,27.27
2019-02-21T16:37:27.727Z,33.97
2019-02-21T16:39:58.007Z,33.00
2019-02-21T16:42:28.301Z,31.03
2019-02-21T16:44:59.422Z,30.93
2019-02-21T16:47:29.857Z,30.17
2019-02-21T16:50:00.325Z,30.03
2019-02-21T16:52:30.552Z,30.43
2019-02-21T16:55:00.820Z,31.83
2019-02-21T16:57:31.123Z,30.33
2019-02-21T17:00:01.424Z,32.17
2019-02-21T17:02:31.749Z,26.93
2019-02-21T17:05:02.045Z,32.60
2019-02-21T17:07:32.381Z,35.00
2019-02-21T17:10:04.040Z,33.10
2019-02-21T17:12:36.993Z,32.17
2019-02-21T17:15:06.773Z,33.63
2019-02-21T17:17:37.670Z,29.93
2019-02-21T17:20:09.754Z,32.63
2019-02-21T17:22:40.469Z,32.53
2019-02-21T17:25:11.356Z,32.93
2019-02-21T17:27:41.656Z,30.70
2019-02-21T17:30:14.380Z,30.83
2019-02-21T17:32:44.760Z,32.20
2019-02-21T17:35:15.371Z,31.93
2019-02-21T17:37:45.919Z,32.60
2019-02-21T17:40:18.072Z,31.97
2019-02-21T17:42:48.580Z,36.37
2019-02-21T17:45:19.165Z,35.67
2019-02-21T17:47:49.485Z,32.27
2019-02-21T17:50:19.765Z,36.17
2019-02-21T17:52:50.037Z,38.43
2019-02-21T17:55:20.312Z,36.23
2019-02-21T17:57:50.670Z,37.07
2019-02-21T18:00:26.213Z,38.07
2019-02-21T18:02:57.154Z,33.17
2019-02-21T18:05:27.502Z,35.30
2019-02-21T18:07:57.714Z,33.80
2019-02-21T18:10:27.987Z,37.50
2019-02-21T18:12:58.266Z,36.17
2019-02-21T18:15:28.540Z,34.83
2019-02-21T18:17:59.136Z,31.30
2019-02-21T18:20:29.619Z,35.33
2019-02-21T18:22:59.946Z,33.30
2019-02-21T18:25:33.424Z,32.80
2019-02-21T18:28:03.729Z,34.73
2019-02-21T18:30:34.264Z,27.07
2019-02-21T18:33:06.314Z,31.77
2019-02-21T18:35:39.462Z,28.07
2019-02-21T18:38:10.981Z,30.13
2019-02-21T18:40:41.289Z,28.90
2019-02-21T18:43:11.552Z,32.73
2019-02-21T18:45:41.908Z,29.20
2019-02-21T18:48:12.180Z,28.97
2019-02-21T18:50:42.619Z,24.03
2019-02-21T18:53:12.903Z,24.23
2019-02-21T18:55:43.216Z,26.70
2019-02-21T18:58:13.527Z,22.87
2019-02-21T19:00:43.852Z,24.10
2019-02-21T19:03:14.205Z,21.83
2019-02-21T19:05:44.604Z,18.73
2019-02-21T19:08:14.932Z,20.40
2019-02-21T19:10:45.228Z,22.70
2019-02-21T19:13:15.577Z,22.73
2019-02-21T19:15:45.852Z,21.77
2019-02-21T19:18:16.172Z,22.13
2019-02-21T19:20:46.493Z,22.47
2019-02-21T19:23:16.892Z,23.47
2019-02-21T19:25:47.204Z,21.47
2019-02-21T19:28:17.471Z,24.00
2019-02-21T19:31:00.782Z,22.47
2019-02-21T19:33:31.067Z,21.27
2019-02-21T19:36:01.480Z,21.23
2019-02-21T19:38:31.799Z,19.23
2019-02-21T19:41:02.081Z,23.30
2019-02-21T19:43:32.388Z,22.83
2019-02-21T19:46:02.657Z,19.77
2019-02-21T19:48:32.932Z,23.23
2019-02-21T19:51:03.198Z,19.53
2019-02-21T19:53:33.528Z,24.10
2019-02-21T19:56:03.836Z,24.17
2019-02-21T19:58:34.189Z,26.10
2019-02-21T20:01:04.484Z,26.83
2019-02-21T20:03:35.409Z,27.97
2019-02-21T20:06:06.389Z,24.73
2019-02-21T20:08:36.579Z,24.10
2019-02-21T20:11:07.170Z,26.17
2019-02-21T20:13:38.137Z,28.30
2019-02-21T20:16:08.751Z,24.87
2019-02-21T20:18:39.244Z,29.97
2019-02-21T20:21:09.610Z,24.80
2019-02-21T20:23:40.085Z,27.20
2019-02-21T20:26:18.000Z,28.43
2019-02-21T20:28:42.528Z,28.10
2019-02-21T20:31:12.929Z,27.00
2019-02-21T20:33:43.450Z,30.33
2019-02-21T20:36:13.878Z,29.03
2019-02-21T20:38:44.245Z,29.50
2019-02-21T20:41:14.600Z,30.17
2019-02-21T20:43:45.114Z,30.77
2019-02-21T20:46:15.442Z,28.57
2019-02-21T20:48:48.969Z,28.40
2019-02-21T20:51:19.306Z,28.90
2019-02-21T20:53:49.643Z,28.80
2019-02-21T20:56:19.932Z,31.57
2019-02-21T20:58:50.260Z,26.50
2019-02-21T21:01:21.261Z,27.70
2019-02-21T21:03:51.696Z,30.37
2019-02-21T21:06:22.046Z,30.67
2019-02-21T21:08:52.336Z,34.60
2019-02-21T21:11:22.620Z,30.33
2019-02-21T21:13:52.889Z,31.93
2019-02-21T21:16:23.259Z,33.67
2019-02-21T21:18:53.529Z,31.83
2019-02-21T21:21:23.925Z,38.07
2019-02-21T21:23:54.188Z,32.63
2019-02-21T21:26:24.501Z,34.70
2019-02-21T21:28:54.812Z,31.40
2019-02-21T21:31:25.148Z,32.97
2019-02-21T21:33:55.427Z,34.73
2019-02-21T21:36:25.733Z,34.77
2019-02-21T21:38:56.013Z,34.87
2019-02-21T21:41:26.414Z,33.50
2019-02-21T21:43:56.756Z,31.23
2019-02-21T21:46:27.082Z,32.47
2019-02-21T21:48:57.361Z,32.70
2019-02-21T21:51:27.644Z,34.03
2019-02-21T21:53:58.006Z,33.90
2019-02-21T21:56:28.276Z,33.83
2019-02-21T21:58:58.548Z,34.43
2019-02-21T22:01:28.855Z,31.87
2019-02-21T22:03:59.092Z,34.87
2019-02-21T22:06:30.233Z,30.87
2019-02-21T22:09:05.022Z,34.37
2019-02-21T22:11:34.263Z,34.43
2019-02-21T22:14:04.461Z,27.60
2019-02-21T22:16:34.719Z,30.47
2019-02-21T22:19:05.005Z,34.33
2019-02-21T22:21:35.274Z,29.17
2019-02-21T22:24:05.576Z,28.27
2019-02-21T22:26:35.847Z,29.13
2019-02-21T22:29:06.113Z,31.93
2019-02-21T22:31:36.388Z,28.97
2019-02-21T22:34:06.236Z,30.77
2019-02-21T22:36:36.501Z,25.93
2019-02-21T22:39:15.931Z,27.97
2019-02-21T22:41:40.104Z,29.60
2019-02-21T22:44:10.376Z,27.73
2019-02-21T22:46:40.693Z,26.23
2019-02-21T22:49:10.960Z,26.50
2019-02-21T22:51:41.333Z,27.80
2019-02-21T22:54:11.640Z,27.60
2019-02-21T22:56:41.912Z,24.83
2019-02-21T22:59:12.212Z,26.60
2019-02-21T23:01:44.854Z,22.33
2019-02-21T23:04:40.382Z,24.67
2019-02-21T23:07:34.924Z,24.57
2019-02-21T23:10:05.323Z,21.90
2019-02-21T23:12:35.677Z,23.13
2019-02-21T23:15:06.800Z,23.90
2019-02-21T23:17:37.068Z,24.37
2019-02-21T23:20:08.602Z,20.30
2019-02-21T23:22:38.972Z,22.10
2019-02-21T23:25:09.701Z,21.47
2019-02-21T23:27:40.091Z,24.57
2019-02-21T23:30:12.368Z,21.53
2019-02-21T23:32:42.652Z,20.07
2019-02-21T23:35:19.321Z,21.47
2019-02-21T23:37:49.588Z,20.13
2019-02-21T23:40:19.883Z,20.03
2019-02-21T23:42:50.137Z,20.60
2019-02-21T23:45:20.505Z,18.73
2019-02-21T23:47:50.779Z,18.97
2019-02-21T23:50:21.081Z,18.93
2019-02-21T23:52:51.362Z,19.17
2019-02-21T23:55:21.600Z,18.50
2019-02-21T23:57:52.772Z,19.80
